sensor_id;sensor_type;location;lat;lon;timestamp;P1;durP1;ratioP1;P2;durP2;ratioP2
14774;SDS011;7479;47.042;15.160;2022-07-29T05:16:17;12.20;;;7.20;;
14774;SDS011;7479;47.042;15.160;2022-07-29T05:21:11;8.90;;;7.75;;
14774;SDS011;7479;47.042;15.160;2022-07-29T05:26:05;12.35;;;10.63;;
14774;SDS011;7479;47.042;15.160;2022-07-29T05:30:59;10.70;;;8.13;;
14774;SDS011;7479;47.042;15.160;2022-07-29T05:35:54;11.90;;;9.65;;
14774;SDS011;7479;47.042;15.160;2022-07-29T05:40:51;13.07;;;6.70;;
14774;SDS011;7479;47.042;15.160;2022-07-29T05:45:45;11.07;;;7.60;;
14774;SDS011;7479;47.042;15.160;2022-07-29T06:06:21;7.00;;;6.30;;
14774;SDS011;7479;47.042;15.160;2022-07-29T06:11:15;6.38;;;5.78;;
14774;SDS011;7479;47.042;15.160;2022-07-29T06:16:10;8.45;;;5.95;;
14774;SDS011;7479;47.042;15.160;2022-07-29T06:21:21;8.40;;;6.50;;
14774;SDS011;7479;47.042;15.160;2022-07-29T06:26:15;9.27;;;5.93;;
14774;SDS011;7479;47.042;15.160;2022-07-29T06:31:08;10.32;;;5.57;;
14774;SDS011;7479;47.042;15.160;2022-07-29T06:36:03;8.73;;;5.97;;
14774;SDS011;7479;47.042;15.160;2022-07-29T06:40:59;7.30;;;6.35;;
14774;SDS011;7479;47.042;15.160;2022-07-29T06:45:58;8.65;;;6.43;;
14774;SDS011;7479;47.042;15.160;2022-07-29T06:50:52;9.13;;;6.90;;
14774;SDS011;7479;47.042;15.160;2022-07-29T06:55:46;7.90;;;6.28;;
14774;SDS011;7479;47.042;15.160;2022-07-29T07:00:42;7.00;;;6.13;;
14774;SDS011;7479;47.042;15.160;2022-07-29T07:05:35;6.10;;;5.53;;
14774;SDS011;7479;47.042;15.160;2022-07-29T07:10:30;6.50;;;5.90;;
14774;SDS011;7479;47.042;15.160;2022-07-29T07:15:23;8.75;;;5.95;;
14774;SDS011;7479;47.042;15.160;2022-07-29T07:20:32;6.78;;;6.18;;
14774;SDS011;7479;47.042;15.160;2022-07-29T07:25:27;7.13;;;6.32;;
14774;SDS011;7479;47.042;15.160;2022-07-29T07:30:21;6.72;;;5.93;;
14774;SDS011;7479;47.042;15.160;2022-07-29T07:35:15;6.55;;;5.88;;
14774;SDS011;7479;47.042;15.160;2022-07-29T07:40:11;8.45;;;6.20;;
14774;SDS011;7479;47.042;15.160;2022-07-29T07:45:10;6.82;;;5.90;;
14774;SDS011;7479;47.042;15.160;2022-07-29T07:50:07;6.80;;;6.15;;
14774;SDS011;7479;47.042;15.160;2022-07-29T07:55:09;6.90;;;5.65;;
14774;SDS011;7479;47.042;15.160;2022-07-29T08:00:08;6.63;;;6.00;;
14774;SDS011;7479;47.042;15.160;2022-07-29T08:05:03;8.80;;;5.50;;
14774;SDS011;7479;47.042;15.160;2022-07-29T08:10:03;7.30;;;5.68;;
14774;SDS011;7479;47.042;15.160;2022-07-29T08:14:59;6.03;;;5.43;;
14774;SDS011;7479;47.042;15.160;2022-07-29T08:19:52;7.15;;;5.32;;
14774;SDS011;7479;47.042;15.160;2022-07-29T08:24:46;5.80;;;5.30;;
14774;SDS011;7479;47.042;15.160;2022-07-29T08:29:46;6.70;;;5.75;;
14774;SDS011;7479;47.042;15.160;2022-07-29T08:34:42;7.88;;;4.85;;
14774;SDS011;7479;47.042;15.160;2022-07-29T08:39:37;5.47;;;4.97;;
14774;SDS011;7479;47.042;15.160;2022-07-29T08:44:33;6.50;;;4.63;;
14774;SDS011;7479;47.042;15.160;2022-07-29T08:49:27;4.97;;;4.32;;
14774;SDS011;7479;47.042;15.160;2022-07-29T08:54:22;5.97;;;4.40;;
14774;SDS011;7479;47.042;15.160;2022-07-29T08:59:16;5.82;;;5.05;;
14774;SDS011;7479;47.042;15.160;2022-07-29T09:04:13;5.78;;;4.97;;
14774;SDS011;7479;47.042;15.160;2022-07-29T09:09:07;5.90;;;5.00;;
14774;SDS011;7479;47.042;15.160;2022-07-29T09:14:03;7.30;;;4.65;;
14774;SDS011;7479;47.042;15.160;2022-07-29T09:18:57;6.15;;;5.25;;
14774;SDS011;7479;47.042;15.160;2022-07-29T09:24:00;5.97;;;5.47;;
14774;SDS011;7479;47.042;15.160;2022-07-29T09:28:56;5.50;;;5.00;;
14774;SDS011;7479;47.042;15.160;2022-07-29T09:33:52;6.55;;;5.38;;
14774;SDS011;7479;47.042;15.160;2022-07-29T09:38:56;6.28;;;5.50;;
14774;SDS011;7479;47.042;15.160;2022-07-29T09:43:54;6.65;;;5.57;;
14774;SDS011;7479;47.042;15.160;2022-07-29T09:59:19;6.43;;;5.55;;
14774;SDS011;7479;47.042;15.160;2022-07-29T10:04:17;6.28;;;5.30;;
14774;SDS011;7479;47.042;15.160;2022-07-29T10:09:13;5.72;;;5.30;;
14774;SDS011;7479;47.042;15.160;2022-07-29T10:14:12;5.53;;;5.03;;
14774;SDS011;7479;47.042;15.160;2022-07-29T10:19:08;5.95;;;5.30;;
14774;SDS011;7479;47.042;15.160;2022-07-29T10:24:04;7.40;;;4.95;;
14774;SDS011;7479;47.042;15.160;2022-07-29T10:29:05;6.40;;;5.03;;
14774;SDS011;7479;47.042;15.160;2022-07-29T10:34:03;6.03;;;5.03;;
14774;SDS011;7479;47.042;15.160;2022-07-29T10:39:11;5.18;;;4.68;;
14774;SDS011;7479;47.042;15.160;2022-07-29T10:44:14;4.97;;;4.57;;
14774;SDS011;7479;47.042;15.160;2022-07-29T10:49:14;6.60;;;6.07;;
14774;SDS011;7479;47.042;15.160;2022-07-29T10:54:13;5.70;;;5.20;;
14774;SDS011;7479;47.042;15.160;2022-07-29T10:59:23;5.63;;;5.13;;
14774;SDS011;7479;47.042;15.160;2022-07-29T11:15:24;6.60;;;5.13;;
14774;SDS011;7479;47.042;15.160;2022-07-29T11:20:31;6.35;;;4.93;;
14774;SDS011;7479;47.042;15.160;2022-07-29T11:25:28;4.95;;;4.53;;
14774;SDS011;7479;47.042;15.160;2022-07-29T11:30:49;5.82;;;5.30;;
14774;SDS011;7479;47.042;15.160;2022-07-29T11:35:44;5.32;;;4.82;;
14774;SDS011;7479;47.042;15.160;2022-07-29T11:41:22;5.25;;;4.78;;
14774;SDS011;7479;47.042;15.160;2022-07-29T11:51:53;5.72;;;4.68;;
14774;SDS011;7479;47.042;15.160;2022-07-29T11:56:56;9.60;;;5.15;;
14774;SDS011;7479;47.042;15.160;2022-07-29T12:01:51;5.60;;;4.63;;
14774;SDS011;7479;47.042;15.160;2022-07-29T12:07:08;5.60;;;4.90;;
14774;SDS011;7479;47.042;15.160;2022-07-29T12:12:25;6.05;;;5.40;;
14774;SDS011;7479;47.042;15.160;2022-07-29T12:17:26;5.53;;;5.03;;
14774;SDS011;7479;47.042;15.160;2022-07-29T12:27:36;5.20;;;4.45;;
14774;SDS011;7479;47.042;15.160;2022-07-29T12:32:34;7.15;;;4.72;;
14774;SDS011;7479;47.042;15.160;2022-07-29T12:37:29;6.88;;;5.10;;
14774;SDS011;7479;47.042;15.160;2022-07-29T12:42:34;5.10;;;4.65;;
14774;SDS011;7479;47.042;15.160;2022-07-29T12:47:29;5.20;;;4.65;;
14774;SDS011;7479;47.042;15.160;2022-07-29T12:52:23;6.75;;;4.82;;
14774;SDS011;7479;47.042;15.160;2022-07-29T12:57:21;4.30;;;3.90;;
14774;SDS011;7479;47.042;15.160;2022-07-29T13:02:21;5.50;;;4.30;;
14774;SDS011;7479;47.042;15.160;2022-07-29T13:07:16;4.75;;;4.30;;
14774;SDS011;7479;47.042;15.160;2022-07-29T13:12:38;5.15;;;4.18;;
14774;SDS011;7479;47.042;15.160;2022-07-29T13:17:54;5.85;;;4.60;;
14774;SDS011;7479;47.042;15.160;2022-07-29T13:22:50;5.15;;;4.18;;
14774;SDS011;7479;47.042;15.160;2022-07-29T13:27:44;4.75;;;4.28;;
14774;SDS011;7479;47.042;15.160;2022-07-29T13:32:38;4.82;;;4.40;;
14774;SDS011;7479;47.042;15.160;2022-07-29T13:37:34;5.43;;;4.43;;
14774;SDS011;7479;47.042;15.160;2022-07-29T13:42:30;4.97;;;4.30;;
14774;SDS011;7479;47.042;15.160;2022-07-29T13:47:24;5.43;;;4.18;;
14774;SDS011;7479;47.042;15.160;2022-07-29T13:52:23;5.32;;;4.57;;
14774;SDS011;7479;47.042;15.160;2022-07-29T13:57:18;4.70;;;4.28;;
14774;SDS011;7479;47.042;15.160;2022-07-29T14:02:12;4.25;;;3.85;;
14774;SDS011;7479;47.042;15.160;2022-07-29T14:07:06;4.75;;;4.32;;
14774;SDS011;7479;47.042;15.160;2022-07-29T14:12:08;3.92;;;3.40;;
14774;SDS011;7479;47.042;15.160;2022-07-29T14:17:06;6.30;;;4.05;;
14774;SDS011;7479;47.042;15.160;2022-07-29T14:22:02;5.70;;;5.18;;
14774;SDS011;7479;47.042;15.160;2022-07-29T14:27:00;3.78;;;3.17;;
14774;SDS011;7479;47.042;15.160;2022-07-29T14:31:54;5.32;;;4.82;;
14774;SDS011;7479;47.042;15.160;2022-07-29T14:36:50;5.07;;;4.57;;
14774;SDS011;7479;47.042;15.160;2022-07-29T14:41:47;5.35;;;4.85;;
14774;SDS011;7479;47.042;15.160;2022-07-29T14:46:41;5.05;;;4.55;;
14774;SDS011;7479;47.042;15.160;2022-07-29T14:51:39;5.70;;;4.45;;
14774;SDS011;7479;47.042;15.160;2022-07-29T14:56:36;5.07;;;3.90;;
14774;SDS011;7479;47.042;15.160;2022-07-29T15:01:37;4.60;;;4.20;;
14774;SDS011;7479;47.042;15.160;2022-07-29T15:06:31;5.70;;;4.20;;
14774;SDS011;7479;47.042;15.160;2022-07-29T15:11:25;6.57;;;4.15;;
14774;SDS011;7479;47.042;15.160;2022-07-29T15:16:20;4.85;;;4.10;;
14774;SDS011;7479;47.042;15.160;2022-07-29T15:21:14;5.10;;;4.10;;
14774;SDS011;7479;47.042;15.160;2022-07-29T15:26:08;7.55;;;3.90;;
14774;SDS011;7479;47.042;15.160;2022-07-29T15:31:02;4.50;;;4.10;;
14774;SDS011;7479;47.042;15.160;2022-07-29T15:35:58;6.03;;;4.00;;
14774;SDS011;7479;47.042;15.160;2022-07-29T15:40:51;5.20;;;4.00;;
14774;SDS011;7479;47.042;15.160;2022-07-29T15:45:45;5.20;;;3.88;;
14774;SDS011;7479;47.042;15.160;2022-07-29T15:50:52;4.70;;;4.15;;
14774;SDS011;7479;47.042;15.160;2022-07-29T15:55:48;4.68;;;4.28;;
14774;SDS011;7479;47.042;15.160;2022-07-29T16:00:42;6.18;;;4.30;;
14774;SDS011;7479;47.042;15.160;2022-07-29T16:05:36;4.32;;;3.92;;
14774;SDS011;7479;47.042;15.160;2022-07-29T16:10:29;5.13;;;4.00;;
14774;SDS011;7479;47.042;15.160;2022-07-29T16:15:25;4.10;;;3.63;;
14774;SDS011;7479;47.042;15.160;2022-07-29T16:20:19;4.95;;;4.30;;
14774;SDS011;7479;47.042;15.160;2022-07-29T16:25:13;4.25;;;3.90;;
14774;SDS011;7479;47.042;15.160;2022-07-29T16:30:07;5.75;;;4.20;;
14774;SDS011;7479;47.042;15.160;2022-07-29T16:35:03;4.72;;;4.30;;
14774;SDS011;7479;47.042;15.160;2022-07-29T16:39:58;4.88;;;3.80;;
14774;SDS011;7479;47.042;15.160;2022-07-29T16:44:51;5.43;;;4.20;;
14774;SDS011;7479;47.042;15.160;2022-07-29T16:49:46;5.25;;;3.90;;
14774;SDS011;7479;47.042;15.160;2022-07-29T16:54:41;4.75;;;4.07;;
14774;SDS011;7479;47.042;15.160;2022-07-29T16:59:34;4.82;;;4.13;;
14774;SDS011;7479;47.042;15.160;2022-07-29T17:04:34;6.00;;;4.30;;
14774;SDS011;7479;47.042;15.160;2022-07-29T17:09:28;4.97;;;4.47;;
14774;SDS011;7479;47.042;15.160;2022-07-29T17:14:23;5.30;;;4.30;;
14774;SDS011;7479;47.042;15.160;2022-07-29T17:19:21;5.22;;;4.70;;
14774;SDS011;7479;47.042;15.160;2022-07-29T17:24:15;5.93;;;4.80;;
14774;SDS011;7479;47.042;15.160;2022-07-29T17:29:09;5.13;;;4.63;;
14774;SDS011;7479;47.042;15.160;2022-07-29T17:34:04;4.57;;;4.28;;
14774;SDS011;7479;47.042;15.160;2022-07-29T17:39:01;8.85;;;4.40;;
14774;SDS011;7479;47.042;15.160;2022-07-29T17:43:56;7.45;;;4.68;;
14774;SDS011;7479;47.042;15.160;2022-07-29T17:48:50;6.43;;;5.28;;
14774;SDS011;7479;47.042;15.160;2022-07-29T17:53:45;6.60;;;4.95;;
14774;SDS011;7479;47.042;15.160;2022-07-29T17:58:38;5.75;;;5.10;;
14774;SDS011;7479;47.042;15.160;2022-07-29T18:03:32;6.90;;;5.18;;
14774;SDS011;7479;47.042;15.160;2022-07-29T18:08:28;5.93;;;5.43;;
14774;SDS011;7479;47.042;15.160;2022-07-29T18:13:23;6.40;;;5.15;;
14774;SDS011;7479;47.042;15.160;2022-07-29T18:18:17;7.53;;;6.70;;
14774;SDS011;7479;47.042;15.160;2022-07-29T18:23:11;7.70;;;5.82;;
14774;SDS011;7479;47.042;15.160;2022-07-29T18:28:05;7.22;;;6.05;;
14774;SDS011;7479;47.042;15.160;2022-07-29T18:33:01;6.72;;;5.97;;
14774;SDS011;7479;47.042;15.160;2022-07-29T18:38:11;6.43;;;5.65;;
14774;SDS011;7479;47.042;15.160;2022-07-29T18:43:05;7.10;;;6.40;;
14774;SDS011;7479;47.042;15.160;2022-07-29T18:48:01;6.88;;;6.25;;
14774;SDS011;7479;47.042;15.160;2022-07-29T18:52:54;7.50;;;6.72;;
14774;SDS011;7479;47.042;15.160;2022-07-29T18:57:49;9.48;;;6.55;;
14774;SDS011;7479;47.042;15.160;2022-07-29T19:02:47;7.20;;;6.57;;
14774;SDS011;7479;47.042;15.160;2022-07-29T19:07:43;6.70;;;6.10;;
14774;SDS011;7479;47.042;15.160;2022-07-29T19:12:37;8.20;;;6.85;;
14774;SDS011;7479;47.042;15.160;2022-07-29T19:17:30;9.70;;;8.20;;
14774;SDS011;7479;47.042;15.160;2022-07-29T19:22:24;10.18;;;7.63;;
14774;SDS011;7479;47.042;15.160;2022-07-29T19:27:19;9.95;;;6.95;;
14774;SDS011;7479;47.042;15.160;2022-07-29T19:32:13;13.50;;;6.75;;
14774;SDS011;7479;47.042;15.160;2022-07-29T19:37:15;7.10;;;6.40;;
14774;SDS011;7479;47.042;15.160;2022-07-29T19:42:09;7.68;;;6.82;;
14774;SDS011;7479;47.042;15.160;2022-07-29T19:47:04;6.28;;;5.38;;
14774;SDS011;7479;47.042;15.160;2022-07-29T19:51:58;9.82;;;5.10;;
14774;SDS011;7479;47.042;15.160;2022-07-29T19:56:52;5.38;;;4.90;;
14774;SDS011;7479;47.042;15.160;2022-07-29T20:01:46;5.45;;;4.47;;
14774;SDS011;7479;47.042;15.160;2022-07-29T20:06:41;6.55;;;4.97;;
14774;SDS011;7479;47.042;15.160;2022-07-29T20:11:35;5.70;;;5.20;;
14774;SDS011;7479;47.042;15.160;2022-07-29T20:16:30;5.80;;;4.90;;
14774;SDS011;7479;47.042;15.160;2022-07-29T20:21:24;3.50;;;3.20;;
14774;SDS011;7479;47.042;15.160;2022-07-29T20:26:19;9.25;;;3.90;;
14774;SDS011;7479;47.042;15.160;2022-07-29T20:31:14;4.90;;;3.85;;
14774;SDS011;7479;47.042;15.160;2022-07-29T20:36:10;16.90;;;5.80;;
